Time;durP1;ratioP1;P1;durP2;ratioP2;P2;SDS_P1;SDS_P2;PMS_P1;PMS_P2;Temp;Humidity;BMP_temperature;BMP_pressure;BME280_temperature;BME280_humidity;BME280_pressure;Samples;Min_cycle;Max_cycle;Signal;HPM_P1;HPM_P2
2021/05/22 00:00:57;;;;;;;;;;;9.00;99.90;;;;;;5090335;28;19958;-73
2021/05/22 00:03:22;;;;;;;;;;;9.00;99.90;;;;;;5081945;28;19982;-73
2021/05/22 00:05:48;;;;;;;;;;;8.90;99.90;;;;;;5090068;28;19908;-72
2021/05/22 00:08:14;;;;;;;;;;;8.90;99.90;;;;;;5091067;28;19908;-73
2021/05/22 00:10:39;;;;;;;;;;;8.80;99.90;;;;;;5088051;28;19919;-71
2021/05/22 00:13:05;;;;;;;;;;;8.80;99.90;;;;;;5087870;28;20254;-75
2021/05/22 00:15:30;;;;;;;;;;;8.80;99.90;;;;;;5089619;28;19908;-72
2021/05/22 00:17:56;;;;;;;;;;;8.80;99.90;;;;;;5089655;28;20396;-73
2021/05/22 00:20:21;;;;;;;;;;;8.80;99.90;;;;;;5090909;28;19909;-72
2021/05/22 00:22:47;;;;;;;;;;;8.70;99.90;;;;;;5090688;28;20348;-73
2021/05/22 00:25:13;;;;;;;;;;;8.70;99.90;;;;;;5090906;28;20011;-72
2021/05/22 00:27:39;;;;;;;;;;;8.70;99.90;;;;;;5081663;28;19912;-72
2021/05/22 00:30:04;;;;;;;;;;;8.70;99.90;;;;;;5090650;28;19957;-74
2021/05/22 00:32:30;;;;;;;;;;;8.70;99.90;;;;;;5087079;28;19908;-73
2021/05/22 00:34:56;;;;;;;;;;;8.70;99.90;;;;;;5090593;28;20273;-73
2021/05/22 00:37:21;;;;;;;;;;;8.70;99.90;;;;;;5080641;28;20004;-73
2021/05/22 00:39:46;;;;;;;;;;;8.70;99.90;;;;;;5090214;28;20057;-73
2021/05/22 00:42:12;;;;;;;;;;;8.60;99.90;;;;;;5090413;28;19916;-73
2021/05/22 00:44:56;;;;;;;;;;;8.60;99.90;;;;;;5092591;28;19915;-73
2021/05/22 00:47:21;;;;;;;;;;;8.60;99.90;;;;;;5093298;28;20333;-73
2021/05/22 00:49:47;;;;;;;;;;;8.60;99.90;;;;;;5094277;28;20010;-73
2021/05/22 00:52:12;;;;;;;;;;;8.60;99.90;;;;;;5094080;28;19916;-73
2021/05/22 00:54:38;;;;;;;;;;;8.50;99.90;;;;;;5094198;28;20353;-73
2021/05/22 00:57:04;;;;;;;;;;;8.50;99.90;;;;;;5093454;28;19908;-73
2021/05/22 00:59:30;;;;;;;;;;;8.50;99.90;;;;;;5094205;28;19908;-73
2021/05/22 01:01:55;;;;;;;;;;;8.50;99.90;;;;;;5093958;28;19919;-73
2021/05/22 01:04:21;;;;;;;;;;;8.50;99.90;;;;;;5092934;28;19993;-73
2021/05/22 01:06:46;;;;;;;;;;;8.40;99.90;;;;;;5090432;28;19915;-73
2021/05/22 01:09:15;;;;;;;;;;;8.40;99.90;;;;;;5089739;28;19912;-73
2021/05/22 01:11:42;;;;;;;;;;;8.40;99.90;;;;;;5092837;28;19915;-73
2021/05/22 01:14:07;;;;;;;;;;;8.40;99.90;;;;;;5092700;28;20370;-73
2021/05/22 01:16:33;;;;;;;;;;;8.40;99.90;;;;;;5093011;28;19908;-72
2021/05/22 01:19:00;;;;;;;;;;;8.40;99.90;;;;;;5092527;28;20315;-73
2021/05/22 01:21:25;;;;;;;;;;;8.40;99.90;;;;;;5093845;28;19947;-73
2021/05/22 01:23:57;;;;;;;;;;;8.40;99.90;;;;;;5093381;28;20381;-72
2021/05/22 01:26:23;;;;;;;;;;;8.50;99.90;;;;;;5093022;28;20334;-73
2021/05/22 01:28:49;;;;;;;;;;;8.50;99.90;;;;;;5093772;28;19908;-73
2021/05/22 01:31:14;;;;;;;;;;;8.50;99.90;;;;;;5093683;28;19934;-73
2021/05/22 01:33:40;;;;;;;;;;;8.50;99.90;;;;;;5093652;28;19947;-73
2021/05/22 01:36:06;;;;;;;;;;;8.50;99.90;;;;;;5092610;28;19915;-72
2021/05/22 01:38:31;;;;;;;;;;;8.50;99.90;;;;;;5086357;28;19969;-73
2021/05/22 01:40:57;;;;;;;;;;;8.60;99.90;;;;;;5093156;28;19916;-73
2021/05/22 01:43:22;;;;;;;;;;;8.60;99.90;;;;;;5093379;28;19912;-74
2021/05/22 01:45:49;;;;;;;;;;;8.60;99.90;;;;;;5092453;28;19915;-73
2021/05/22 01:48:17;;;;;;;;;;;8.60;99.90;;;;;;5093265;28;19908;-73
2021/05/22 01:50:48;;;;;;;;;;;8.60;99.90;;;;;;5093393;28;20380;-73
2021/05/22 01:53:14;;;;;;;;;;;8.60;99.90;;;;;;5087476;28;19908;-73
2021/05/22 01:55:40;;;;;;;;;;;8.60;99.90;;;;;;5092206;28;19914;-72
2021/05/22 01:58:06;;;;;;;;;;;8.60;99.90;;;;;;5092923;28;19908;-73
2021/05/22 02:00:32;;;;;;;;;;;8.60;99.90;;;;;;5093064;28;19912;-73
2021/05/22 02:03:17;;;;;;;;;;;8.70;99.90;;;;;;5093000;28;19909;-73
2021/05/22 02:05:44;;;;;;;;;;;8.70;99.90;;;;;;5092094;28;19912;-73
2021/05/22 02:08:13;;;;;;;;;;;8.70;99.90;;;;;;5084191;28;19944;-72
2021/05/22 02:10:39;;;;;;;;;;;8.70;99.90;;;;;;5092589;28;20348;-73
2021/05/22 02:13:04;;;;;;;;;;;8.80;99.90;;;;;;5092912;28;19912;-73
2021/05/22 02:15:31;;;;;;;;;;;8.80;99.90;;;;;;5092655;28;19919;-73
2021/05/22 02:17:56;;;;;;;;;;;8.80;99.90;;;;;;5091937;28;19908;-73
2021/05/22 02:20:23;;;;;;;;;;;8.80;99.90;;;;;;5092738;28;20262;-73
2021/05/22 02:22:49;;;;;;;;;;;8.70;99.90;;;;;;5092031;28;19944;-72
2021/05/22 02:25:15;;;;;;;;;;;8.70;99.90;;;;;;5091147;28;19912;-73
2021/05/22 02:27:41;;;;;;;;;;;8.60;99.90;;;;;;5091655;28;19915;-72
2021/05/22 02:30:10;;;;;;;;;;;8.50;99.90;;;;;;5092550;28;19908;-72
2021/05/22 02:32:38;;;;;;;;;;;8.50;99.90;;;;;;5091221;28;19909;-73
2021/05/22 02:35:04;;;;;;;;;;;8.40;99.90;;;;;;5092363;28;19908;-73
2021/05/22 02:37:30;;;;;;;;;;;8.40;99.90;;;;;;5084079;28;19912;-73
2021/05/22 02:39:57;;;;;;;;;;;8.40;99.90;;;;;;5091990;28;20011;-72
2021/05/22 02:42:23;;;;;;;;;;;8.30;99.90;;;;;;5092276;28;19915;-72
2021/05/22 02:44:50;;;;;;;;;;;8.30;99.90;;;;;;5092170;28;19924;-72
2021/05/22 02:47:17;;;;;;;;;;;8.30;99.90;;;;;;5091392;28;20003;-73
2021/05/22 02:49:43;;;;;;;;;;;8.30;99.90;;;;;;5092003;28;19978;-72
2021/05/22 02:52:13;;;;;;;;;;;8.30;99.90;;;;;;5092067;28;20527;-73
2021/05/22 02:54:40;;;;;;;;;;;8.40;99.90;;;;;;5091827;28;19956;-73
2021/05/22 02:57:07;;;;;;;;;;;8.30;99.90;;;;;;5091064;28;19908;-73
2021/05/22 02:59:33;;;;;;;;;;;8.30;99.90;;;;;;5091878;28;20592;-73
2021/05/22 03:02:01;;;;;;;;;;;8.30;99.90;;;;;;5091313;28;19916;-72
2021/05/22 03:04:27;;;;;;;;;;;8.30;99.90;;;;;;5091265;28;19908;-72
2021/05/22 03:06:52;;;;;;;;;;;8.30;99.90;;;;;;5085808;28;19981;-73
2021/05/22 03:09:18;;;;;;;;;;;8.30;99.90;;;;;;5087859;28;19908;-73
2021/05/22 03:11:43;;;;;;;;;;;8.20;99.90;;;;;;5110188;28;19908;-72
2021/05/22 03:14:09;;;;;;;;;;;8.10;99.90;;;;;;5110234;28;19912;-73
2021/05/22 03:16:34;;;;;;;;;;;8.00;99.90;;;;;;5110895;28;20372;-73
2021/05/22 03:19:00;;;;;;;;;;;8.00;99.90;;;;;;5111530;28;19907;-72
2021/05/22 03:21:26;;;;;;;;;;;7.90;99.90;;;;;;5111292;28;19959;-73
2021/05/22 03:23:52;;;;;;;;;;;7.90;99.90;;;;;;5111435;28;19915;-73
2021/05/22 03:26:17;;;;;;;;;;;7.80;99.90;;;;;;5110934;28;19999;-73
2021/05/22 03:28:42;;;;;;;;;;;7.80;99.90;;;;;;5111776;28;20322;-73
2021/05/22 03:31:08;;;;;;;;;;;7.90;99.90;;;;;;5111849;28;19908;-72
2021/05/22 03:33:34;;;;;;;;;;;7.80;99.90;;;;;;5111767;28;20323;-73
2021/05/22 03:35:59;;;;;;;;;;;7.80;99.90;;;;;;5110626;28;19918;-73
2021/05/22 03:38:25;;;;;;;;;;;7.90;99.90;;;;;;5087352;28;19912;-73
2021/05/22 03:40:50;;;;;;;;;;;7.90;99.90;;;;;;5089836;28;19962;-72
2021/05/22 03:43:16;;;;;;;;;;;7.90;99.90;;;;;;5090733;28;20315;-73
2021/05/22 03:45:41;;;;;;;;;;;8.00;99.90;;;;;;5089686;28;19916;-73
2021/05/22 03:48:07;;;;;;;;;;;8.00;99.90;;;;;;5090333;28;19914;-73
2021/05/22 03:50:32;;;;;;;;;;;8.00;99.90;;;;;;5090624;28;19912;-72
2021/05/22 03:52:58;;;;;;;;;;;8.10;99.90;;;;;;5090950;28;19912;-73
2021/05/22 03:55:23;;;;;;;;;;;8.10;99.90;;;;;;5091126;28;20364;-73
2021/05/22 03:57:49;;;;;;;;;;;8.20;99.90;;;;;;5089235;28;19908;-73
2021/05/22 04:00:15;;;;;;;;;;;8.20;99.90;;;;;;5091022;28;19912;-73
2021/05/22 04:02:40;;;;;;;;;;;8.30;99.90;;;;;;5091222;28;19920;-73
2021/05/22 04:05:06;;;;;;;;;;;8.30;99.90;;;;;;5091001;28;19908;-73
2021/05/22 04:07:32;;;;;;;;;;;8.30;99.90;;;;;;5082747;28;19912;-72
2021/05/22 04:09:57;;;;;;;;;;;8.30;99.90;;;;;;5090722;28;19953;-72
2021/05/22 04:12:23;;;;;;;;;;;8.10;99.90;;;;;;5090864;28;19912;-71
2021/05/22 04:14:48;;;;;;;;;;;8.00;99.90;;;;;;5090915;28;19912;-73
2021/05/22 04:17:14;;;;;;;;;;;7.80;99.90;;;;;;5090279;28;19909;-73
2021/05/22 04:19:39;;;;;;;;;;;7.70;99.90;;;;;;5093833;28;19914;-72
2021/05/22 04:22:05;;;;;;;;;;;7.60;99.90;;;;;;5094799;28;19916;-72
2021/05/22 04:24:30;;;;;;;;;;;7.50;99.90;;;;;;5094443;28;19908;-73
2021/05/22 04:26:56;;;;;;;;;;;7.50;99.90;;;;;;5094240;28;19908;-72
2021/05/22 04:29:21;;;;;;;;;;;7.40;99.90;;;;;;5094563;28;19909;-72
2021/05/22 04:31:47;;;;;;;;;;;7.30;99.90;;;;;;5094743;28;19908;-73
2021/05/22 04:34:13;;;;;;;;;;;7.30;99.90;;;;;;5094403;28;19912;-72
2021/05/22 04:36:38;;;;;;;;;;;7.20;99.90;;;;;;5091630;28;19922;-73
2021/05/22 04:39:04;;;;;;;;;;;7.20;99.90;;;;;;5104415;28;20385;-72
2021/05/22 04:41:30;;;;;;;;;;;7.30;99.90;;;;;;5114174;28;19923;-72
2021/05/22 04:43:55;;;;;;;;;;;7.40;99.90;;;;;;5114083;28;19915;-73
2021/05/22 04:46:21;;;;;;;;;;;7.50;99.90;;;;;;5113284;28;20432;-72
2021/05/22 04:48:46;;;;;;;;;;;7.50;99.90;;;;;;5113513;28;19914;-73
2021/05/22 04:51:14;;;;;;;;;;;7.60;99.90;;;;;;5114196;28;19911;-71
2021/05/22 04:53:39;;;;;;;;;;;7.60;99.90;;;;;;5114874;28;19908;-71
2021/05/22 04:56:05;;;;;;;;;;;7.70;99.90;;;;;;5114199;28;19908;-72
2021/05/22 04:58:30;;;;;;;;;;;7.80;99.90;;;;;;5113127;28;19908;-71
2021/05/22 05:00:56;;;;;;;;;;;7.70;99.90;;;;;;5114504;28;20031;-71
2021/05/22 05:03:21;;;;;;;;;;;7.70;99.90;;;;;;5114378;28;20250;-71
2021/05/22 05:05:47;;;;;;;;;;;7.70;99.90;;;;;;5113551;28;19915;-71
2021/05/22 05:08:20;;;;;;;;;;;7.70;99.90;;;;;;5091824;28;19915;-71
2021/05/22 05:10:46;;;;;;;;;;;7.80;99.90;;;;;;5093841;28;19908;-72
2021/05/22 05:13:12;;;;;;;;;;;7.80;99.90;;;;;;5093970;28;20322;-71
2021/05/22 05:15:37;;;;;;;;;;;7.90;99.90;;;;;;5093401;28;19908;-71
2021/05/22 05:18:04;;;;;;;;;;;8.00;99.90;;;;;;5093474;28;19956;-71
2021/05/22 05:20:29;;;;;;;;;;;8.10;99.90;;;;;;5092341;28;20357;-71
2021/05/22 05:22:54;;;;;;;;;;;8.20;99.90;;;;;;5093445;28;19908;-71
2021/05/22 05:25:20;;;;;;;;;;;8.20;99.90;;;;;;5093606;28;19912;-72
2021/05/22 05:27:46;;;;;;;;;;;8.30;99.90;;;;;;5091546;28;19990;-71
2021/05/22 05:30:11;;;;;;;;;;;8.40;99.90;;;;;;5093114;28;19965;-71
2021/05/22 05:32:37;;;;;;;;;;;8.50;99.90;;;;;;5093417;28;19969;-71
2021/05/22 05:35:02;;;;;;;;;;;8.70;99.90;;;;;;5093501;28;20007;-71
2021/05/22 05:37:28;;;;;;;;;;;8.80;99.90;;;;;;5086006;28;20277;-71
2021/05/22 05:39:53;;;;;;;;;;;8.80;99.90;;;;;;5092879;28;19923;-71
2021/05/22 05:42:19;;;;;;;;;;;8.90;99.90;;;;;;5093406;28;19919;-71
2021/05/22 05:44:44;;;;;;;;;;;8.90;99.90;;;;;;5093204;28;20039;-71
2021/05/22 05:47:10;;;;;;;;;;;9.00;99.90;;;;;;5092349;28;19908;-71
2021/05/22 05:49:35;;;;;;;;;;;9.10;99.90;;;;;;5093206;28;19912;-71
2021/05/22 05:52:01;;;;;;;;;;;9.10;99.90;;;;;;5093410;28;20318;-71
2021/05/22 05:54:26;;;;;;;;;;;9.20;99.90;;;;;;5092868;28;19915;-71
2021/05/22 05:56:52;;;;;;;;;;;9.30;99.90;;;;;;5092403;28;19938;-71
2021/05/22 05:59:17;;;;;;;;;;;9.40;99.90;;;;;;5093000;28;19908;-71
2021/05/22 06:01:43;;;;;;;;;;;9.50;99.90;;;;;;5093058;28;20269;-71
2021/05/22 06:04:08;;;;;;;;;;;9.70;99.90;;;;;;5091692;28;19915;-71
2021/05/22 06:06:34;;;;;;;;;;;9.70;99.90;;;;;;5090835;28;20000;-72
2021/05/22 06:08:59;;;;;;;;;;;9.90;99.90;;;;;;5086829;28;19908;-70
2021/05/22 06:11:28;;;;;;;;;;;9.90;99.90;;;;;;5092740;28;19919;-71
2021/05/22 06:13:53;;;;;;;;;;;10.10;99.90;;;;;;5093057;28;19995;-71
2021/05/22 06:16:29;;;;;;;;;;;10.40;99.90;;;;;;5092191;28;19995;-71
2021/05/22 06:18:55;;;;;;;;;;;10.80;99.90;;;;;;5093064;28;19912;-71
2021/05/22 06:21:21;;;;;;;;;;;11.20;99.90;;;;;;5092820;28;19923;-71
2021/05/22 06:23:46;;;;;;;;;;;11.50;99.90;;;;;;5092583;28;20006;-71
2021/05/22 06:26:12;;;;;;;;;;;11.90;99.90;;;;;;5090879;28;20000;-71
2021/05/22 06:28:37;;;;;;;;;;;12.40;99.90;;;;;;5091467;28;20315;-71
2021/05/22 06:31:05;;;;;;;;;;;12.60;99.90;;;;;;5092730;28;19908;-71
2021/05/22 06:33:30;;;;;;;;;;;12.40;99.90;;;;;;5092575;28;19912;-71
2021/05/22 06:35:56;;;;;;;;;;;12.00;99.90;;;;;;5091873;28;19908;-71
2021/05/22 06:38:22;;;;;;;;;;;11.70;99.90;;;;;;5085115;28;19915;-71
2021/05/22 06:40:48;;;;;;;;;;;11.40;99.90;;;;;;5091818;28;19916;-71
2021/05/22 06:43:13;;;;;;;;;;;11.40;99.90;;;;;;5092218;28;19908;-71
2021/05/22 06:45:41;;;;;;;;;;;12.00;99.90;;;;;;5090542;28;20281;-71
2021/05/22 06:48:07;;;;;;;;;;;12.50;99.90;;;;;;5090993;28;19934;-71
2021/05/22 06:50:33;;;;;;;;;;;13.10;99.90;;;;;;5092395;28;19912;-71
2021/05/22 06:52:58;;;;;;;;;;;13.20;99.90;;;;;;5092430;28;19908;-71
2021/05/22 06:55:24;;;;;;;;;;;13.60;99.90;;;;;;5091955;28;20041;-71
2021/05/22 06:57:50;;;;;;;;;;;14.10;99.90;;;;;;5091424;28;19908;-72
2021/05/22 07:00:15;;;;;;;;;;;14.30;99.90;;;;;;5092031;28;19931;-71
2021/05/22 07:02:41;;;;;;;;;;;14.40;99.90;;;;;;5092140;28;19988;-71
2021/05/22 07:05:06;;;;;;;;;;;14.70;99.90;;;;;;5092188;28;19908;-72
2021/05/22 07:07:32;;;;;;;;;;;14.80;99.90;;;;;;5084206;28;19948;-72
2021/05/22 07:09:58;;;;;;;;;;;14.30;99.90;;;;;;5091552;28;19908;-71
2021/05/22 07:12:23;;;;;;;;;;;13.80;99.90;;;;;;5092035;28;20011;-71
2021/05/22 07:14:49;;;;;;;;;;;13.40;99.90;;;;;;5090477;28;19911;-72
2021/05/22 07:17:14;;;;;;;;;;;13.30;99.90;;;;;;5089924;28;19966;-71
2021/05/22 07:19:40;;;;;;;;;;;13.50;99.90;;;;;;5091779;28;19965;-71
2021/05/22 07:22:05;;;;;;;;;;;13.60;99.90;;;;;;5091690;28;20006;-71
2021/05/22 07:24:31;;;;;;;;;;;13.40;99.90;;;;;;5091414;28;19961;-72
2021/05/22 07:26:56;;;;;;;;;;;13.30;99.90;;;;;;5091064;28;19955;-71
2021/05/22 07:29:22;;;;;;;;;;;13.80;99.90;;;;;;5090594;28;20003;-71
2021/05/22 07:31:48;;;;;;;;;;;14.00;99.90;;;;;;5090301;28;19908;-72
2021/05/22 07:34:13;;;;;;;;;;;14.20;99.90;;;;;;5091643;28;19908;-72
2021/05/22 07:36:40;;;;;;;;;;;14.70;99.90;;;;;;5088943;28;20537;-72
2021/05/22 07:39:06;;;;;;;;;;;14.90;99.90;;;;;;5085030;28;19912;-72
2021/05/22 07:41:32;;;;;;;;;;;15.20;99.90;;;;;;5084278;28;19916;-72
2021/05/22 07:43:58;;;;;;;;;;;15.80;99.90;;;;;;5091149;28;20430;-72
2021/05/22 07:46:23;;;;;;;;;;;16.30;99.90;;;;;;5089350;28;20894;-71
2021/05/22 07:48:49;;;;;;;;;;;16.70;99.00;;;;;;5091437;28;19932;-70
2021/05/22 07:51:15;;;;;;;;;;;16.90;98.80;;;;;;5091806;28;19953;-72
2021/05/22 07:53:41;;;;;;;;;;;17.10;97.60;;;;;;5090862;28;19908;-71
2021/05/22 07:56:06;;;;;;;;;;;17.10;96.90;;;;;;5090560;28;19926;-70
2021/05/22 07:58:32;;;;;;;;;;;17.20;95.80;;;;;;5091133;28;20357;-71
2021/05/22 08:00:57;;;;;;;;;;;17.30;96.20;;;;;;5091377;28;19912;-71
2021/05/22 08:03:22;;;;;;;;;;;17.40;96.20;;;;;;5091353;28;19981;-72
2021/05/22 08:05:48;;;;;;;;;;;17.60;95.90;;;;;;5090386;28;19912;-71
2021/05/22 08:08:14;;;;;;;;;;;17.70;94.30;;;;;;5084211;28;19931;-72
2021/05/22 08:10:39;;;;;;;;;;;17.30;94.00;;;;;;5090707;28;19931;-72
2021/05/22 08:13:05;;;;;;;;;;;17.10;93.30;;;;;;5091049;28;20312;-71
2021/05/22 08:15:31;;;;;;;;;;;16.60;95.20;;;;;;5091045;28;19998;-71
2021/05/22 08:17:57;;;;;;;;;;;16.30;95.10;;;;;;5088413;28;20015;-72
2021/05/22 08:20:22;;;;;;;;;;;16.10;94.40;;;;;;5090758;28;19923;-72
2021/05/22 08:22:49;;;;;;;;;;;16.20;95.30;;;;;;5090944;28;19912;-72
2021/05/22 08:25:14;;;;;;;;;;;16.50;94.80;;;;;;5090448;28;20031;-72
2021/05/22 08:27:41;;;;;;;;;;;16.70;93.20;;;;;;5090211;28;19958;-71
2021/05/22 08:30:08;;;;;;;;;;;16.90;93.80;;;;;;5091460;28;19917;-71
2021/05/22 08:32:33;;;;;;;;;;;17.10;94.30;;;;;;5090434;28;19912;-71
2021/05/22 08:34:59;;;;;;;;;;;17.20;93.30;;;;;;5090964;28;19908;-75
2021/05/22 08:37:24;;;;;;;;;;;17.40;93.60;;;;;;5088634;28;19947;-71
2021/05/22 08:39:52;;;;;;;;;;;17.60;93.40;;;;;;5091138;28;19912;-72
2021/05/22 08:42:22;;;;;;;;;;;17.70;93.60;;;;;;5091644;28;19966;-72
2021/05/22 08:44:47;;;;;;;;;;;17.90;94.20;;;;;;5091611;28;19908;-72
2021/05/22 08:47:13;;;;;;;;;;;18.10;93.00;;;;;;5089235;28;19919;-72
2021/05/22 08:49:41;;;;;;;;;;;18.30;93.50;;;;;;5090584;28;19909;-72
2021/05/22 08:52:15;;;;;;;;;;;18.70;92.20;;;;;;5090828;28;19908;-72
2021/05/22 08:54:40;;;;;;;;;;;18.80;91.40;;;;;;5090615;28;19912;-72
2021/05/22 08:57:06;;;;;;;;;;;18.90;90.20;;;;;;5089857;28;19923;-72
2021/05/22 08:59:37;;;;;;;;;;;18.70;90.40;;;;;;5090929;28;19908;-72
2021/05/22 09:02:03;;;;;;;;;;;18.90;89.60;;;;;;5090460;28;19990;-72
2021/05/22 09:04:28;;;;;;;;;;;18.80;88.60;;;;;;5091062;28;20369;-72
2021/05/22 09:07:04;;;;;;;;;;;18.60;89.30;;;;;;5093377;28;19954;-72
2021/05/22 09:09:41;;;;;;;;;;;18.00;87.90;;;;;;5094010;28;20365;-71
2021/05/22 09:12:07;;;;;;;;;;;17.90;91.40;;;;;;5094287;28;19977;-71
2021/05/22 09:14:47;;;;;;;;;;;18.20;89.40;;;;;;5094059;28;20369;-71
2021/05/22 09:17:13;;;;;;;;;;;18.20;88.30;;;;;;5092569;28;19919;-72
2021/05/22 09:19:39;;;;;;;;;;;18.40;89.90;;;;;;5092390;28;19908;-72
2021/05/22 09:22:21;;;;;;;;;;;18.30;87.80;;;;;;5093767;28;19924;-72
2021/05/22 09:24:59;;;;;;;;;;;18.50;90.40;;;;;;5092633;28;19915;-71
2021/05/22 09:27:29;;;;;;;;;;;18.70;90.50;;;;;;5092949;28;19915;-71
2021/05/22 09:29:54;;;;;;;;;;;18.90;89.10;;;;;;5092445;28;19959;-71
2021/05/22 09:32:20;;;;;;;;;;;18.90;86.60;;;;;;5093392;28;19951;-71
2021/05/22 09:34:48;;;;;;;;;;;18.70;88.10;;;;;;5093696;28;20432;-72
2021/05/22 09:37:13;;;;;;;;;;;18.60;86.00;;;;;;5091631;28;19919;-73
2021/05/22 09:39:46;;;;;;;;;;;18.60;84.80;;;;;;5093491;28;19912;-71
2021/05/22 09:42:11;;;;;;;;;;;18.80;89.10;;;;;;5093441;28;19919;-72
2021/05/22 09:44:37;;;;;;;;;;;19.00;85.30;;;;;;5093503;28;19987;-71
2021/05/22 09:47:03;;;;;;;;;;;19.10;82.20;;;;;;5092012;28;19917;-73
2021/05/22 09:49:30;;;;;;;;;;;19.00;81.80;;;;;;5092743;28;19908;-72
2021/05/22 09:51:57;;;;;;;;;;;19.00;86.80;;;;;;5093384;28;20425;-71
2021/05/22 09:54:41;;;;;;;;;;;19.30;85.20;;;;;;5092145;28;20304;-71
2021/05/22 09:57:07;;;;;;;;;;;19.60;84.10;;;;;;5092385;28;20297;-71
2021/05/22 09:59:33;;;;;;;;;;;19.80;83.60;;;;;;5093059;28;19919;-71
2021/05/22 10:01:59;;;;;;;;;;;19.70;81.80;;;;;;5092868;28;19912;-71
2021/05/22 10:04:25;;;;;;;;;;;19.70;82.30;;;;;;5093310;28;19909;-71
2021/05/22 10:06:51;;;;;;;;;;;19.50;79.20;;;;;;5092271;28;19912;-72
2021/05/22 10:09:17;;;;;;;;;;;19.50;83.40;;;;;;5092966;28;19912;-72
2021/05/22 10:12:02;;;;;;;;;;;19.50;80.30;;;;;;5092901;28;20166;-72
2021/05/22 10:14:31;;;;;;;;;;;19.80;80.50;;;;;;5091558;28;20369;-72
2021/05/22 10:16:57;;;;;;;;;;;20.10;80.60;;;;;;5091124;28;19916;-70
2021/05/22 10:19:23;;;;;;;;;;;20.20;79.10;;;;;;5092866;28;19912;-72
2021/05/22 10:21:49;;;;;;;;;;;20.60;82.60;;;;;;5093109;28;19918;-71
2021/05/22 10:24:14;;;;;;;;;;;21.10;79.40;;;;;;5091772;28;19909;-72
2021/05/22 10:26:40;;;;;;;;;;;21.50;79.50;;;;;;5091709;28;19912;-72
2021/05/22 10:29:06;;;;;;;;;;;21.30;75.30;;;;;;5092395;28;19912;-71
2021/05/22 10:31:37;;;;;;;;;;;21.20;76.50;;;;;;5092556;28;19936;-71
2021/05/22 10:34:13;;;;;;;;;;;21.00;76.00;;;;;;5092583;28;20379;-71
2021/05/22 10:36:59;;;;;;;;;;;20.80;75.30;;;;;;5091846;28;19909;-72
2021/05/22 10:39:44;;;;;;;;;;;20.10;77.80;;;;;;5090799;28;19908;-71
2021/05/22 10:42:10;;;;;;;;;;;19.90;79.10;;;;;;5092433;28;20415;-71
2021/05/22 10:44:38;;;;;;;;;;;20.00;80.40;;;;;;5092038;28;19908;-71
2021/05/22 10:47:14;;;;;;;;;;;20.10;76.70;;;;;;5090621;28;19919;-72
2021/05/22 10:49:51;;;;;;;;;;;19.90;74.10;;;;;;5091924;28;19908;-72
2021/05/22 10:52:21;;;;;;;;;;;19.90;77.30;;;;;;5092192;28;19908;-71
2021/05/22 10:54:57;;;;;;;;;;;20.00;75.80;;;;;;5090664;28;19948;-71
2021/05/22 10:57:23;;;;;;;;;;;20.00;76.80;;;;;;5091047;28;20015;-71
2021/05/22 11:00:08;;;;;;;;;;;20.40;75.70;;;;;;5091936;28;19944;-71
2021/05/22 11:02:34;;;;;;;;;;;20.40;75.90;;;;;;5090382;28;19916;-71
2021/05/22 11:05:20;;;;;;;;;;;20.60;73.20;;;;;;5091994;28;20293;-71
2021/05/22 11:07:45;;;;;;;;;;;20.90;75.90;;;;;;5090757;28;19970;-72
2021/05/22 11:10:31;;;;;;;;;;;21.10;72.20;;;;;;5092068;28;20349;-72
2021/05/22 11:12:56;;;;;;;;;;;20.80;72.20;;;;;;5091763;28;19951;-72
2021/05/22 11:15:37;;;;;;;;;;;20.50;75.30;;;;;;5091694;28;20384;-72
2021/05/22 11:18:03;;;;;;;;;;;20.80;75.10;;;;;;5105546;28;20292;-72
2021/05/22 11:20:29;;;;;;;;;;;21.10;72.60;;;;;;5111901;28;19908;-72
2021/05/22 11:22:56;;;;;;;;;;;21.10;71.20;;;;;;5111839;28;20103;-71
2021/05/22 11:25:22;;;;;;;;;;;20.80;72.20;;;;;;5111899;28;19999;-71
2021/05/22 11:27:49;;;;;;;;;;;20.70;72.90;;;;;;5110530;28;19915;-71
2021/05/22 11:30:15;;;;;;;;;;;20.90;71.90;;;;;;5112010;28;19915;-71
2021/05/22 11:32:47;;;;;;;;;;;20.90;70.10;;;;;;5110404;28;19997;-70
2021/05/22 11:35:24;;;;;;;;;;;20.80;72.70;;;;;;5111648;28;19922;-72
2021/05/22 11:37:50;;;;;;;;;;;20.90;72.70;;;;;;5110830;28;19961;-71
2021/05/22 11:40:34;;;;;;;;;;;20.90;70.60;;;;;;5111670;28;19955;-71
2021/05/22 11:42:59;;;;;;;;;;;20.40;70.10;;;;;;5111670;28;19911;-72
2021/05/22 11:45:31;;;;;;;;;;;19.60;69.40;;;;;;5111725;28;19953;-72
2021/05/22 11:47:57;;;;;;;;;;;19.50;70.80;;;;;;5095126;28;20319;-71
2021/05/22 11:50:23;;;;;;;;;;;19.50;70.90;;;;;;5091242;28;19912;-71
2021/05/22 11:52:48;;;;;;;;;;;19.40;72.40;;;;;;5091375;28;20017;-71
2021/05/22 11:55:19;;;;;;;;;;;19.60;74.10;;;;;;5091276;28;19912;-70
2021/05/22 11:57:45;;;;;;;;;;;19.80;71.90;;;;;;5090489;28;19909;-72
2021/05/22 12:00:11;;;;;;;;;;;19.90;71.20;;;;;;5090957;28;19915;-72
2021/05/22 12:02:40;;;;;;;;;;;20.20;74.20;;;;;;5090883;28;19944;-71
2021/05/22 12:05:07;;;;;;;;;;;20.20;71.10;;;;;;5089779;28;19912;-72
2021/05/22 12:07:45;;;;;;;;;;;19.90;69.50;;;;;;5090298;28;19935;-72
2021/05/22 12:10:11;;;;;;;;;;;19.90;73.00;;;;;;5091062;28;19962;-72
2021/05/22 12:12:37;;;;;;;;;;;20.30;72.90;;;;;;5091053;28;19943;-72
2021/05/22 12:15:02;;;;;;;;;;;20.20;70.90;;;;;;5090903;28;19912;-72
2021/05/22 12:17:28;;;;;;;;;;;20.60;71.30;;;;;;5089207;28;19912;-72
2021/05/22 12:19:55;;;;;;;;;;;20.90;71.80;;;;;;5090819;28;19995;-72
2021/05/22 12:22:28;;;;;;;;;;;21.30;70.60;;;;;;5089423;28;19955;-71
2021/05/22 12:24:54;;;;;;;;;;;21.50;69.40;;;;;;5090976;28;19912;-73
2021/05/22 12:27:19;;;;;;;;;;;21.50;67.10;;;;;;5090062;28;19908;-73
2021/05/22 12:29:48;;;;;;;;;;;21.20;68.30;;;;;;5091092;28;19915;-73
2021/05/22 12:32:14;;;;;;;;;;;21.40;70.60;;;;;;5090574;28;20377;-72
2021/05/22 12:34:40;;;;;;;;;;;21.70;71.30;;;;;;5090937;28;19938;-72
2021/05/22 12:37:05;;;;;;;;;;;21.90;69.40;;;;;;5090270;28;19908;-73
2021/05/22 12:39:32;;;;;;;;;;;22.00;68.20;;;;;;5091358;28;19909;-72
2021/05/22 12:41:57;;;;;;;;;;;22.10;68.40;;;;;;5094432;28;19912;-72
2021/05/22 12:44:23;;;;;;;;;;;21.70;69.20;;;;;;5094473;28;19908;-72
2021/05/22 12:46:58;;;;;;;;;;;21.70;68.40;;;;;;5093182;28;19908;-72
2021/05/22 12:49:30;;;;;;;;;;;22.00;70.90;;;;;;5102376;28;19914;-73
2021/05/22 12:52:12;;;;;;;;;;;22.20;68.30;;;;;;5115323;28;20299;-73
2021/05/22 12:54:38;;;;;;;;;;;22.00;66.70;;;;;;5112889;28;20002;-73
2021/05/22 12:57:09;;;;;;;;;;;21.40;66.70;;;;;;5113993;28;19954;-73
2021/05/22 12:59:36;;;;;;;;;;;20.90;68.10;;;;;;5114683;28;19999;-73
2021/05/22 13:02:18;;;;;;;;;;;20.40;67.90;;;;;;5114511;28;19918;-72
2021/05/22 13:04:48;;;;;;;;;;;19.90;68.70;;;;;;5112789;28;19908;-72
2021/05/22 13:07:15;;;;;;;;;;;20.00;72.40;;;;;;5112338;28;19908;-73
2021/05/22 13:09:55;;;;;;;;;;;20.40;71.60;;;;;;5114572;28;19908;-72
2021/05/22 13:12:21;;;;;;;;;;;20.80;72.90;;;;;;5114442;28;19914;-71
2021/05/22 13:14:51;;;;;;;;;;;21.00;70.00;;;;;;5114436;28;20073;-72
2021/05/22 13:17:17;;;;;;;;;;;21.30;67.50;;;;;;5102197;28;19908;-72
2021/05/22 13:19:48;;;;;;;;;;;21.30;66.40;;;;;;5093559;28;19909;-72
2021/05/22 13:22:24;;;;;;;;;;;21.20;67.90;;;;;;5093711;28;20388;-72
2021/05/22 13:25:19;;;;;;;;;;;21.30;67.20;;;;;;5093765;28;19961;-72
2021/05/22 13:27:58;;;;;;;;;;;21.10;65.80;;;;;;5083645;28;19915;-72
2021/05/22 13:30:24;;;;;;;;;;;21.20;65.10;;;;;;5092459;28;20318;-72
2021/05/22 13:32:50;;;;;;;;;;;21.40;65.90;;;;;;5093426;28;20006;-72
2021/05/22 13:35:18;;;;;;;;;;;21.50;64.40;;;;;;5093540;28;20339;-72
2021/05/22 13:37:44;;;;;;;;;;;21.40;67.10;;;;;;5092854;28;19908;-72
2021/05/22 13:40:10;;;;;;;;;;;21.00;64.90;;;;;;5093498;28;20367;-73
2021/05/22 13:42:35;;;;;;;;;;;20.80;67.90;;;;;;5093449;28;19912;-72
2021/05/22 13:45:01;;;;;;;;;;;20.60;68.10;;;;;;5093432;28;20288;-71
2021/05/22 13:47:26;;;;;;;;;;;20.30;67.40;;;;;;5091881;28;19908;-72
2021/05/22 13:49:52;;;;;;;;;;;19.80;68.10;;;;;;5092830;28;19908;-72
2021/05/22 13:52:17;;;;;;;;;;;19.40;67.40;;;;;;5092993;28;20053;-72
2021/05/22 13:54:43;;;;;;;;;;;19.10;70.70;;;;;;5093291;28;19920;-71
2021/05/22 13:57:08;;;;;;;;;;;19.30;72.00;;;;;;5092172;28;19908;-71
2021/05/22 13:59:34;;;;;;;;;;;19.80;70.60;;;;;;5093154;28;19908;-72
2021/05/22 14:01:59;;;;;;;;;;;20.40;69.40;;;;;;5093165;28;19912;-72
2021/05/22 14:04:25;;;;;;;;;;;20.60;67.30;;;;;;5092772;28;19909;-71
2021/05/22 14:06:50;;;;;;;;;;;20.70;69.40;;;;;;5092350;28;19909;-72
2021/05/22 14:09:15;;;;;;;;;;;21.10;64.90;;;;;;5092772;28;19995;-72
2021/05/22 14:11:42;;;;;;;;;;;21.40;67.70;;;;;;5092785;28;19915;-72
2021/05/22 14:14:08;;;;;;;;;;;21.30;63.50;;;;;;5092834;28;19931;-72
2021/05/22 14:16:33;;;;;;;;;;;20.70;63.70;;;;;;5091642;28;20393;-71
2021/05/22 14:18:59;;;;;;;;;;;19.90;64.70;;;;;;5092190;28;20385;-72
2021/05/22 14:21:25;;;;;;;;;;;19.40;65.80;;;;;;5092498;28;19916;-72
2021/05/22 14:23:50;;;;;;;;;;;19.10;68.60;;;;;;5092700;28;19908;-72